Terminal Aerodrome Forecast
Issued by NWS

Home | Current Version | Previous Version | Text Only | Print | Product List | Glossary On
Versions: 1 2 3 4 5 6 7 8 9 10 11 12
000
FTUS42 TJSJ 270500 RRA
TAFJBQ
TAF
TJBQ 270555Z 2706/2806 12005KT P6SM FEW030
     FM271330 09013G18KT P6SM FEW025 SCT040
     FM272230 11010KT P6SM FEW025
      AMD NOT SKED TIL 271100=

USA.gov is the U.S. government's official web portal to all federal, state and local government web resources and services.